Time;durP1;ratioP1;P1;durP2;ratioP2;P2;SDS_P1;SDS_P2;PMS_P1;PMS_P2;Temp;Humidity;BMP_temperature;BMP_pressure;BME280_temperature;BME280_humidity;BME280_pressure;Samples;Min_cycle;Max_cycle;Signal;HPM_P1;HPM_P2
2024/01/04 00:01:52;;;;;;;46.90;25.10;;;;;;;-8.78;100.00;140150.88;107119;1270;25519;-56
2024/01/04 00:04:40;;;;;;;47.50;25.40;;;;;;;-8.71;100.00;140167.41;107104;1260;25433;-55
2024/01/04 00:07:25;;;;;;;44.50;24.70;;;;;;;-8.71;100.00;140167.89;107131;1263;25491;-59
2024/01/04 00:10:13;;;;;;;47.30;26.20;;;;;;;-8.76;100.00;140155.81;107215;1266;25355;-60
2024/01/04 00:12:59;;;;;;;46.70;25.10;;;;;;;-8.80;100.00;140145.45;107110;1263;25574;-57
2024/01/04 00:15:44;;;;;;;51.50;26.30;;;;;;;-8.74;100.00;140161.22;107195;1257;25353;-59
2024/01/04 00:18:30;;;;;;;56.00;27.60;;;;;;;-8.73;100.00;140162.94;107094;1271;25797;-59
2024/01/04 00:21:15;;;;;;;52.90;27.90;;;;;;;-8.71;100.00;140167.64;107245;1270;25478;-62
2024/01/04 00:24:01;;;;;;;53.50;25.60;;;;;;;-8.53;100.00;140211.78;107206;1263;22521;-56
2024/01/04 00:26:46;;;;;;;48.50;24.70;;;;;;;-8.31;100.00;140265.02;107102;1266;22563;-59
2024/01/04 00:29:32;;;;;;;44.50;24.00;;;;;;;-8.08;100.00;140320.25;107191;1266;25321;-59
2024/01/04 00:32:18;;;;;;;43.90;24.50;;;;;;;-7.83;100.00;140379.22;107094;1270;25440;-60
2024/01/04 00:35:04;;;;;;;47.80;25.10;;;;;;;-7.64;100.00;140427.59;107079;1254;25340;-57
2024/01/04 00:37:49;;;;;;;39.90;22.40;;;;;;;-7.47;100.00;140466.63;107087;1272;25322;-54
2024/01/04 00:40:38;;;;;;;44.20;23.70;;;;;;;-7.34;100.00;140498.20;107023;1263;25369;-59
2024/01/04 00:43:23;;;;;;;37.00;20.90;;;;;;;-7.21;100.00;140530.28;107112;1263;25356;-59
2024/01/04 00:46:09;;;;;;;41.30;20.60;;;;;;;-7.08;100.00;140559.92;107055;1264;23132;-59
2024/01/04 00:48:54;;;;;;;38.20;21.10;;;;;;;-6.94;100.00;140595.50;107105;1263;26496;-61
2024/01/04 00:51:41;;;;;;;42.40;23.40;;;;;;;-6.85;100.00;140615.75;107129;1260;25521;-59
2024/01/04 00:54:26;;;;;;;43.20;23.40;;;;;;;-6.80;100.00;140629.58;107029;1273;25481;-60
2024/01/04 00:57:12;;;;;;;41.40;23.70;;;;;;;-6.72;100.00;140646.13;107093;1266;25489;-60
2024/01/04 00:59:57;;;;;;;44.60;25.40;;;;;;;-6.65;100.00;140664.66;107159;1263;25368;-57
2024/01/04 01:02:43;;;;;;;43.40;24.90;;;;;;;-6.60;100.00;140677.50;107129;1270;25331;-60
2024/01/04 01:05:29;;;;;;;45.90;25.80;;;;;;;-6.61;100.00;140673.55;107634;1260;23438;-60
2024/01/04 01:08:16;;;;;;;48.50;26.80;;;;;;;-6.64;100.00;140667.88;108367;1261;23499;-60
2024/01/04 01:11:01;;;;;;;48.70;25.20;;;;;;;-6.60;100.00;140676.28;107245;1259;25346;-57
2024/01/04 01:13:47;;;;;;;43.30;23.30;;;;;;;-6.57;100.00;140684.91;107107;1270;25384;-57
2024/01/04 01:16:33;;;;;;;47.90;24.80;;;;;;;-6.50;100.00;140700.48;107015;1263;24201;-62
2024/01/04 01:19:18;;;;;;;44.70;25.40;;;;;;;-6.42;100.00;140719.50;107163;1272;25490;-61
2024/01/04 01:22:03;;;;;;;47.00;25.20;;;;;;;-6.36;100.00;140734.56;107081;1267;25369;-54
2024/01/04 01:24:50;;;;;;;41.70;23.80;;;;;;;-6.35;100.00;140738.03;107061;1270;25401;-59
2024/01/04 01:27:37;;;;;;;40.70;22.40;;;;;;;-6.33;100.00;140742.22;107167;1272;22645;-60
2024/01/04 01:30:23;;;;;;;39.90;22.70;;;;;;;-6.29;100.00;140751.66;107098;1273;25359;-58
2024/01/04 01:33:09;;;;;;;43.90;24.60;;;;;;;-6.24;100.00;140763.23;107048;1272;25348;-61
2024/01/04 01:35:55;;;;;;;41.20;22.60;;;;;;;-6.21;100.00;140770.91;107077;1273;25395;-62
2024/01/04 01:38:40;;;;;;;42.90;23.60;;;;;;;-6.24;100.00;140764.97;107123;1267;25391;-61
2024/01/04 01:41:26;;;;;;;41.80;22.70;;;;;;;-6.25;100.00;140761.52;107098;1272;25523;-63
2024/01/04 01:44:12;;;;;;;32.20;19.90;;;;;;;-6.24;100.00;140762.00;107111;1266;25344;-61
2024/01/04 01:46:58;;;;;;;36.10;20.50;;;;;;;-6.23;100.00;140765.95;107107;1270;25386;-63
2024/01/04 01:49:44;;;;;;;36.90;21.50;;;;;;;-6.18;100.00;140778.31;107068;1269;24215;-63
2024/01/04 01:52:31;;;;;;;39.90;21.30;;;;;;;-6.13;100.00;140789.42;107077;1269;25561;-61
2024/01/04 01:55:19;;;;;;;35.60;20.30;;;;;;;-6.10;100.00;140797.34;107051;1272;25408;-60
2024/01/04 01:58:05;;;;;;;31.90;18.60;;;;;;;-6.11;100.00;140795.63;107137;1267;25331;-64
2024/01/04 02:00:52;;;;;;;42.00;21.10;;;;;;;-6.13;100.00;140790.44;107149;1273;25512;-58
2024/01/04 02:03:38;;;;;;;36.00;18.40;;;;;;;-6.18;100.00;140779.05;107100;1263;25418;-62
2024/01/04 02:06:24;;;;;;;41.60;22.70;;;;;;;-6.19;100.00;140776.83;107059;1263;25364;-62
2024/01/04 02:09:10;;;;;;;32.00;18.00;;;;;;;-6.12;100.00;140792.91;107174;1266;25341;-59
2024/01/04 02:12:04;;;;;;;38.90;21.90;;;;;;;-6.09;100.00;140800.58;107085;1270;25406;-63
2024/01/04 02:14:54;;;;;;;40.90;23.00;;;;;;;-6.07;100.00;140803.55;107101;1266;25365;-59
2024/01/04 02:17:40;;;;;;;42.40;22.90;;;;;;;-6.11;100.00;140794.88;107237;1269;22571;-60
2024/01/04 02:20:29;;;;;;;35.70;19.20;;;;;;;-6.21;100.00;140770.41;107005;1268;25423;-59
2024/01/04 02:23:18;;;;;;;33.10;18.90;;;;;;;-6.37;100.00;140732.34;107133;1267;25808;-56
2024/01/04 02:26:03;;;;;;;34.60;21.00;;;;;;;-6.48;100.00;140705.69;107160;1263;22536;-60
2024/01/04 02:28:49;;;;;;;35.50;20.00;;;;;;;-6.43;100.00;140717.78;107028;1263;25382;-61
2024/01/04 02:31:35;;;;;;;30.10;17.50;;;;;;;-6.32;100.00;140744.97;107001;1273;25347;-56
2024/01/04 02:34:20;;;;;;;37.20;20.00;;;;;;;-6.20;100.00;140772.64;107042;1273;25357;-64
2024/01/04 02:37:06;;;;;;;33.00;19.90;;;;;;;-6.13;100.00;140790.92;107164;1272;25466;-63
2024/01/04 02:39:52;;;;;;;34.70;19.40;;;;;;;-6.04;100.00;140812.17;107140;1264;25356;-59
2024/01/04 02:42:39;;;;;;;35.90;20.50;;;;;;;-5.97;100.00;140828.50;107245;1271;25420;-63
2024/01/04 02:45:24;;;;;;;36.70;20.80;;;;;;;-5.91;100.00;140844.77;107067;1271;25353;-61
2024/01/04 02:48:10;;;;;;;30.30;18.60;;;;;;;-5.88;100.00;140850.97;107155;1267;25359;-57
2024/01/04 02:50:56;;;;;;;38.30;21.70;;;;;;;-5.86;100.00;140855.41;107036;1270;25408;-63
2024/01/04 02:53:41;;;;;;;34.60;19.70;;;;;;;-5.85;100.00;140856.88;107071;1270;25490;-59
2024/01/04 02:56:27;;;;;;;32.00;19.60;;;;;;;-5.82;100.00;140864.80;107101;1263;25378;-62
2024/01/04 02:59:16;;;;;;;30.90;18.20;;;;;;;-5.77;100.00;140877.17;107176;1262;22712;-58
2024/01/04 03:02:02;;;;;;;32.20;17.40;;;;;;;-5.71;100.00;140891.02;107024;1270;25379;-60
2024/01/04 03:04:48;;;;;;;27.90;16.10;;;;;;;-5.67;100.00;140902.88;107058;1264;25366;-59
2024/01/04 03:07:34;;;;;;;29.00;16.20;;;;;;;-5.61;100.00;140915.97;107101;1263;26499;-61
2024/01/04 03:10:19;;;;;;;31.10;16.90;;;;;;;-5.53;100.00;140936.28;107086;1261;22521;-59
2024/01/04 03:13:06;;;;;;;26.00;16.60;;;;;;;-5.50;100.00;140942.42;107031;1263;25417;-59
2024/01/04 03:15:52;;;;;;;32.20;17.60;;;;;;;-5.43;100.00;140959.02;107105;1271;25318;-61
2024/01/04 03:18:38;;;;;;;32.60;17.40;;;;;;;-5.41;100.00;140964.45;106998;1273;25501;-61
2024/01/04 03:21:24;;;;;;;28.30;16.90;;;;;;;-5.39;100.00;140968.66;107138;1272;25356;-62
2024/01/04 03:24:09;;;;;;;30.90;18.40;;;;;;;-5.39;100.00;140968.66;107139;1260;25341;-64
2024/01/04 03:26:55;;;;;;;31.00;15.50;;;;;;;-5.41;100.00;140963.48;107133;1269;25564;-61
2024/01/04 03:29:41;;;;;;;29.60;16.50;;;;;;;-5.41;100.00;140964.72;107175;1273;25368;-61
2024/01/04 03:32:27;;;;;;;27.10;15.50;;;;;;;-5.41;100.00;140963.97;107092;1272;25407;-63
2024/01/04 03:35:12;;;;;;;29.70;17.70;;;;;;;-5.42;100.00;140960.75;107105;1264;25372;-62
2024/01/04 03:37:58;;;;;;;28.60;16.40;;;;;;;-5.43;100.00;140959.00;107130;1267;25408;-60
2024/01/04 03:40:43;;;;;;;31.60;18.80;;;;;;;-5.44;100.00;140957.03;107049;1273;25512;-60
2024/01/04 03:43:30;;;;;;;39.50;22.60;;;;;;;-5.50;100.00;140943.42;106938;1273;25402;-61
2024/01/04 03:46:16;;;;;;;30.10;18.60;;;;;;;-5.47;100.00;140950.59;106992;1272;25349;-51
2024/01/04 03:49:03;;;;;;;29.10;17.10;;;;;;;-5.45;100.00;140955.28;106981;1271;25349;-57
2024/01/04 03:51:50;;;;;;;34.00;20.20;;;;;;;-5.41;100.00;140963.72;107005;1271;25491;-62
2024/01/04 03:54:36;;;;;;;35.10;20.00;;;;;;;-5.36;100.00;140976.33;107016;1264;25332;-64
2024/01/04 03:57:21;;;;;;;30.80;18.50;;;;;;;-5.34;100.00;140981.02;107011;1264;25519;-61
2024/01/04 04:00:08;;;;;;;30.70;17.70;;;;;;;-5.33;100.00;140983.75;106968;1264;25334;-63
2024/01/04 04:02:58;;;;;;;28.70;16.40;;;;;;;-5.32;100.00;140985.22;106984;1263;25479;-62
2024/01/04 04:05:44;;;;;;;27.10;14.80;;;;;;;-5.29;100.00;140994.63;106990;1260;25424;-56
2024/01/04 04:08:30;;;;;;;23.60;13.60;;;;;;;-5.21;100.00;141012.20;106994;1269;25399;-60
2024/01/04 04:11:17;;;;;;;22.10;11.20;;;;;;;-5.13;100.00;141032.22;107002;1272;25343;-58
2024/01/04 04:14:02;;;;;;;18.00;10.50;;;;;;;-5.06;100.00;141049.80;107004;1264;25376;-60
2024/01/04 04:16:48;;;;;;;15.00;8.40;;;;;;;-4.96;100.00;141073.05;106980;1264;25356;-56
2024/01/04 04:19:33;;;;;;;13.40;7.50;;;;;;;-4.90;100.00;141087.91;106981;1264;25477;-58
2024/01/04 04:22:19;;;;;;;16.30;8.00;;;;;;;-4.86;100.00;141098.31;106945;1263;25468;-61
2024/01/04 04:25:05;;;;;;;12.90;6.90;;;;;;;-4.81;100.00;141109.69;106984;1263;25341;-60
2024/01/04 04:27:50;;;;;;;15.20;7.80;;;;;;;-4.75;100.00;141123.78;107010;1267;25350;-58
2024/01/04 04:30:36;;;;;;;18.30;7.70;;;;;;;-4.72;100.00;141131.95;107170;1267;25343;-60
2024/01/04 04:33:21;;;;;;;14.90;8.20;;;;;;;-4.67;100.00;141144.58;106976;1264;25349;-59
2024/01/04 04:36:07;;;;;;;17.20;7.80;;;;;;;-4.62;100.00;141156.72;107159;1264;25325;-56
2024/01/04 04:38:53;;;;;;;14.10;8.00;;;;;;;-4.57;100.00;141166.63;107160;1264;25356;-58
2024/01/04 04:41:39;;;;;;;18.70;7.20;;;;;;;-4.56;100.00;141170.08;107083;1264;25476;-61
2024/01/04 04:44:25;;;;;;;13.40;7.60;;;;;;;-4.54;100.00;141174.28;107059;1264;25567;-63
2024/01/04 04:47:11;;;;;;;14.20;7.70;;;;;;;-4.55;100.00;141171.81;107153;1264;25325;-59
2024/01/04 04:49:57;;;;;;;12.20;6.70;;;;;;;-4.54;100.00;141173.80;107141;1264;25407;-57
2024/01/04 04:52:42;;;;;;;10.40;6.50;;;;;;;-4.47;100.00;141190.88;107103;1263;25379;-59
2024/01/04 04:55:28;;;;;;;13.60;6.60;;;;;;;-4.40;100.00;141207.47;107064;1264;25389;-61
2024/01/04 04:58:14;;;;;;;15.60;7.60;;;;;;;-4.36;100.00;141217.61;107022;1264;25471;-57
2024/01/04 05:01:00;;;;;;;10.60;6.20;;;;;;;-4.32;100.00;141227.78;107004;1260;25392;-59
2024/01/04 05:03:45;;;;;;;11.90;7.40;;;;;;;-4.30;100.00;141231.00;107245;1260;22582;-58
2024/01/04 05:06:34;;;;;;;12.40;6.80;;;;;;;-4.29;100.00;141235.69;107046;1263;25557;-59
2024/01/04 05:09:20;;;;;;;11.60;7.20;;;;;;;-4.24;100.00;141247.08;107102;1271;25350;-60
2024/01/04 05:12:05;;;;;;;10.70;6.90;;;;;;;-4.24;100.00;141246.59;107078;1264;25359;-53
2024/01/04 05:14:51;;;;;;;13.30;6.80;;;;;;;-4.28;100.00;141236.69;107077;1264;25487;-57
2024/01/04 05:17:37;;;;;;;12.90;7.10;;;;;;;-4.32;100.00;141227.52;107069;1259;25924;-60
2024/01/04 05:20:22;;;;;;;11.70;6.80;;;;;;;-4.33;100.00;141224.55;107067;1263;25521;-58
2024/01/04 05:23:08;;;;;;;11.60;5.80;;;;;;;-4.31;100.00;141231.23;107065;1270;25402;-62
2024/01/04 05:25:54;;;;;;;12.70;6.90;;;;;;;-4.25;100.00;141245.84;107077;1264;25370;-60
2024/01/04 05:28:40;;;;;;;13.20;7.00;;;;;;;-4.21;100.00;141254.27;107091;1263;25331;-58
2024/01/04 05:31:25;;;;;;;12.00;6.70;;;;;;;-4.19;100.00;141259.72;106698;1272;390182;-61
2024/01/04 05:34:11;;;;;;;15.90;7.70;;;;;;;-4.18;100.00;141261.19;106978;1268;25436;-64
2024/01/04 05:36:57;;;;;;;13.10;7.30;;;;;;;-4.21;100.00;141254.25;106994;1264;25331;-60
2024/01/04 05:39:42;;;;;;;14.40;8.20;;;;;;;-4.25;100.00;141245.86;106998;1264;25350;-62
2024/01/04 05:42:29;;;;;;;17.60;9.70;;;;;;;-4.24;100.00;141247.58;106936;1263;25526;-60
2024/01/04 05:45:14;;;;;;;16.20;8.40;;;;;;;-4.23;100.00;141248.58;106981;1264;25484;-59
2024/01/04 05:48:00;;;;;;;16.10;8.50;;;;;;;-4.27;100.00;141239.41;106963;1273;25331;-61
2024/01/04 05:50:46;;;;;;;19.40;8.50;;;;;;;-4.31;100.00;141229.25;107006;1264;25375;-59
2024/01/04 05:53:31;;;;;;;14.80;8.60;;;;;;;-4.32;100.00;141228.28;106960;1270;25404;-58
2024/01/04 05:56:17;;;;;;;20.90;9.00;;;;;;;-4.31;100.00;141229.02;106978;1264;25493;-60
2024/01/04 05:59:03;;;;;;;23.80;10.30;;;;;;;-4.30;100.00;141233.47;106970;1264;25385;-56
2024/01/04 06:01:48;;;;;;;18.30;9.60;;;;;;;-4.30;100.00;141232.73;107085;1264;25380;-60
2024/01/04 06:04:34;;;;;;;16.60;10.00;;;;;;;-4.30;100.00;141231.22;107020;1267;25356;-57
2024/01/04 06:07:22;;;;;;;23.90;12.40;;;;;;;-4.30;100.00;141232.97;107076;1260;23203;-60
2024/01/04 06:10:10;;;;;;;19.40;11.50;;;;;;;-4.29;100.00;141234.95;107105;1264;25332;-60
2024/01/04 06:12:56;;;;;;;20.80;10.90;;;;;;;-4.29;100.00;141234.22;107133;1250;25360;-60
2024/01/04 06:15:42;;;;;;;18.30;10.20;;;;;;;-4.30;100.00;141232.98;107138;1271;25334;-58
2024/01/04 06:18:27;;;;;;;21.60;11.50;;;;;;;-4.35;100.00;141220.84;107133;1264;25328;-61
2024/01/04 06:21:13;;;;;;;15.80;9.70;;;;;;;-4.39;100.00;141210.94;107107;1263;22664;-60
2024/01/04 06:23:59;;;;;;;19.70;11.50;;;;;;;-4.43;100.00;141200.77;107055;1260;25487;-58
2024/01/04 06:26:45;;;;;;;18.30;10.20;;;;;;;-4.46;100.00;141192.36;107040;1251;25331;-60
2024/01/04 06:29:31;;;;;;;17.00;10.00;;;;;;;-4.45;100.00;141197.05;107086;1259;23212;-64
2024/01/04 06:32:16;;;;;;;22.60;12.20;;;;;;;-4.41;100.00;141206.97;107098;1260;24193;-62
2024/01/04 06:35:02;;;;;;;19.60;11.30;;;;;;;-4.36;100.00;141217.63;107108;1267;25490;-57
2024/01/04 06:37:48;;;;;;;19.00;10.60;;;;;;;-4.32;100.00;141226.78;107104;1267;25515;-64
2024/01/04 06:40:37;;;;;;;15.80;9.40;;;;;;;-4.34;100.00;141221.84;107156;1263;25398;-57
2024/01/04 06:43:23;;;;;;;17.90;10.40;;;;;;;-4.31;100.00;141230.00;107101;1261;24278;-59
2024/01/04 06:46:08;;;;;;;16.00;10.10;;;;;;;-4.26;100.00;141243.13;107078;1263;25322;-61
2024/01/04 06:48:57;;;;;;;15.20;9.20;;;;;;;-4.24;100.00;141246.59;107072;1264;25436;-61
2024/01/04 06:51:43;;;;;;;17.00;10.20;;;;;;;-4.27;100.00;141239.41;107156;1260;22562;-64
2024/01/04 06:54:29;;;;;;;20.20;10.90;;;;;;;-4.30;100.00;141232.22;107211;1263;25472;-64
2024/01/04 06:57:14;;;;;;;18.20;10.60;;;;;;;-4.29;100.00;141234.70;107052;1261;25552;-60
2024/01/04 07:00:01;;;;;;;20.20;11.50;;;;;;;-4.29;100.00;141233.97;107292;1270;25481;-61
2024/01/04 07:02:46;;;;;;;21.00;11.70;;;;;;;-4.27;100.00;141239.66;107148;1264;25351;-65
2024/01/04 07:05:32;;;;;;;17.40;10.60;;;;;;;-4.29;100.00;141234.45;107046;1263;25349;-62
2024/01/04 07:08:18;;;;;;;18.40;10.70;;;;;;;-4.32;100.00;141228.78;107117;1263;25433;-61
2024/01/04 07:11:05;;;;;;;21.10;12.00;;;;;;;-4.33;100.00;141226.03;107228;1260;25468;-60
2024/01/04 07:13:51;;;;;;;18.60;12.40;;;;;;;-4.30;100.00;141231.50;107102;1263;25395;-58
2024/01/04 07:16:46;;;;;;;21.50;11.90;;;;;;;-4.30;100.00;141232.97;107146;1262;25478;-61
2024/01/04 07:19:33;;;;;;;23.00;12.50;;;;;;;-4.32;100.00;141228.52;107272;1263;25329;-58
2024/01/04 07:22:20;;;;;;;18.80;11.40;;;;;;;-4.39;100.00;141210.42;107131;1263;25403;-62
2024/01/04 07:25:06;;;;;;;20.20;11.80;;;;;;;-4.42;100.00;141204.00;107101;1264;25481;-60
2024/01/04 07:27:52;;;;;;;17.10;10.60;;;;;;;-4.43;100.00;141200.53;107144;1264;25448;-60
2024/01/04 07:30:37;;;;;;;21.70;12.30;;;;;;;-4.44;100.00;141199.78;107103;1264;25567;-57
2024/01/04 07:33:26;;;;;;;21.20;12.60;;;;;;;-4.44;100.00;141199.05;107169;1262;22540;-61
2024/01/04 07:36:11;;;;;;;21.30;11.70;;;;;;;-4.45;100.00;141196.08;107065;1263;25411;-59
2024/01/04 07:38:58;;;;;;;18.10;10.50;;;;;;;-4.47;100.00;141191.86;107180;1263;25423;-64
2024/01/04 07:41:44;;;;;;;17.70;9.60;;;;;;;-4.47;100.00;141191.38;107201;1263;25407;-60
2024/01/04 07:44:30;;;;;;;18.00;10.00;;;;;;;-4.46;100.00;141193.59;107108;1260;25516;-58
2024/01/04 07:47:17;;;;;;;19.10;11.10;;;;;;;-4.43;100.00;141200.53;107126;1263;25332;-61
2024/01/04 07:50:04;;;;;;;19.70;10.50;;;;;;;-4.40;100.00;141207.94;107126;1263;25384;-62
2024/01/04 07:52:50;;;;;;;20.00;10.70;;;;;;;-4.39;100.00;141210.42;107158;1264;23738;-63
2024/01/04 07:55:35;;;;;;;18.20;10.80;;;;;;;-4.33;100.00;141224.30;107248;1261;25331;-59
2024/01/04 07:58:21;;;;;;;17.90;10.10;;;;;;;-4.26;100.00;141242.38;107132;1260;25503;-61
2024/01/04 08:01:07;;;;;;;22.50;12.80;;;;;;;-4.16;100.00;141266.39;107128;1264;25417;-60
2024/01/04 08:03:53;;;;;;;19.60;11.80;;;;;;;-4.05;100.00;141292.89;107150;1262;24311;-64
2024/01/04 08:06:39;;;;;;;20.20;12.50;;;;;;;-3.96;100.00;141315.16;107122;1264;25408;-61
2024/01/04 08:09:24;;;;;;;26.30;12.30;;;;;;;-3.89;100.00;141332.53;107134;1263;25426;-62
2024/01/04 08:12:12;;;;;;;22.70;12.30;;;;;;;-3.88;100.00;141335.48;107132;1260;25342;-60
2024/01/04 08:14:57;;;;;;;18.90;10.10;;;;;;;-3.89;100.00;141332.05;107003;1266;25340;-60
2024/01/04 08:17:43;;;;;;;19.60;11.50;;;;;;;-3.91;100.00;141327.58;106999;1264;25328;-60
2024/01/04 08:20:30;;;;;;;24.80;12.80;;;;;;;-3.89;100.00;141331.05;107049;1260;23804;-64
2024/01/04 08:23:16;;;;;;;23.90;13.60;;;;;;;-3.83;100.00;141346.64;107027;1263;25420;-57
2024/01/04 08:26:05;;;;;;;26.70;14.60;;;;;;;-3.81;100.00;141352.09;107059;1263;25334;-63
2024/01/04 08:28:51;;;;;;;29.50;16.80;;;;;;;-3.81;100.00;141351.59;107018;1263;25337;-59
2024/01/04 08:31:36;;;;;;;29.60;16.00;;;;;;;-3.78;100.00;141359.53;107071;1263;25376;-58
2024/01/04 08:34:22;;;;;;;21.30;13.20;;;;;;;-3.70;100.00;141377.63;107050;1263;25433;-60
2024/01/04 08:37:08;;;;;;;25.10;13.50;;;;;;;-3.63;100.00;141395.20;107015;1264;25512;-59
2024/01/04 08:39:54;;;;;;;22.60;12.90;;;;;;;-3.56;100.00;141411.06;107017;1259;25359;-60
2024/01/04 08:42:40;;;;;;;21.90;12.20;;;;;;;-3.52;100.00;141422.20;107096;1263;25369;-63
2024/01/04 08:45:26;;;;;;;31.10;16.10;;;;;;;-3.47;100.00;141432.61;107089;1263;25341;-62
2024/01/04 08:48:12;;;;;;;25.80;15.90;;;;;;;-3.39;100.00;141453.42;107127;1258;25484;-59
2024/01/04 08:50:59;;;;;;;29.40;17.00;;;;;;;-3.30;100.00;141475.97;106998;1263;25537;-63
2024/01/04 08:53:45;;;;;;;24.50;14.50;;;;;;;-3.21;100.00;141496.80;107018;1260;25418;-55
2024/01/04 08:56:31;;;;;;;21.50;13.80;;;;;;;-3.18;100.00;141502.73;107057;1256;25517;-61
2024/01/04 08:59:17;;;;;;;22.20;13.60;;;;;;;-3.14;100.00;141512.66;106992;1260;25436;-59
2024/01/04 09:02:03;;;;;;;19.90;11.00;;;;;;;-3.10;100.00;141523.81;107025;1273;25360;-61
2024/01/04 09:04:49;;;;;;;21.90;12.20;;;;;;;-3.09;100.00;141526.30;107138;1257;25346;-60
2024/01/04 09:07:35;;;;;;;20.10;12.30;;;;;;;-3.06;100.00;141532.50;107389;1263;25435;-60
2024/01/04 09:10:21;;;;;;;21.30;12.00;;;;;;;-3.02;100.00;141542.91;107230;1260;25418;-60
2024/01/04 09:13:06;;;;;;;22.50;12.50;;;;;;;-3.02;100.00;141543.41;107145;1264;25426;-60
2024/01/04 09:15:52;;;;;;;24.20;13.10;;;;;;;-3.02;100.00;141543.16;107084;1264;25386;-63
2024/01/04 09:18:38;;;;;;;19.60;11.80;;;;;;;-3.02;100.00;141542.91;107148;1260;25481;-60
2024/01/04 09:21:24;;;;;;;23.20;13.10;;;;;;;-2.97;100.00;141553.33;107226;1261;25490;-64
2024/01/04 09:24:14;;;;;;;16.60;10.20;;;;;;;-2.94;100.00;141561.50;107161;1263;25369;-59
2024/01/04 09:27:02;;;;;;;17.30;10.00;;;;;;;-2.94;100.00;141562.97;107206;1255;23327;-61
2024/01/04 09:29:48;;;;;;;21.00;11.90;;;;;;;-2.91;100.00;141568.67;107135;1253;24236;-62
2024/01/04 09:32:35;;;;;;;22.70;12.20;;;;;;;-2.87;100.00;141578.36;107377;1264;25417;-60
2024/01/04 09:35:23;;;;;;;28.30;12.30;;;;;;;-2.82;100.00;141590.98;107290;1263;25490;-60
2024/01/04 09:38:09;;;;;;;29.10;13.80;;;;;;;-2.77;100.00;141601.91;107289;1266;25350;-60
2024/01/04 09:41:16;;;;;;;20.60;11.50;;;;;;;-2.76;100.00;141606.38;107141;1254;25484;-60
2024/01/04 09:44:03;;;;;;;24.20;12.90;;;;;;;-2.70;100.00;141620.75;107357;1260;25518;-59
2024/01/04 09:46:54;;;;;;;22.00;12.70;;;;;;;-2.57;100.00;141652.53;107169;1253;25482;-60
2024/01/04 09:49:42;;;;;;;22.90;11.70;;;;;;;-2.41;100.00;141691.44;107242;1257;25344;-56
2024/01/04 09:52:29;;;;;;;24.10;13.20;;;;;;;-2.31;100.00;141713.28;107841;1254;25456;-63
2024/01/04 09:55:16;;;;;;;26.50;12.30;;;;;;;-2.31;100.00;141713.28;107288;1266;25472;-61
2024/01/04 09:58:03;;;;;;;22.20;12.50;;;;;;;-2.34;100.00;141706.81;107130;1256;25491;-60
2024/01/04 10:00:49;;;;;;;24.00;13.10;;;;;;;-2.36;100.00;141701.61;107292;1273;26496;-64
2024/01/04 10:03:39;;;;;;;26.50;13.60;;;;;;;-2.34;100.00;141706.58;107277;1263;25344;-58
2024/01/04 10:06:34;;;;;;;25.20;12.90;;;;;;;-2.27;100.00;141724.20;107174;1263;25372;-62
2024/01/04 10:09:52;;;;;;;25.20;13.30;;;;;;;-2.28;100.00;141721.22;107150;1269;22796;-60
2024/01/04 10:12:42;;;;;;;29.30;15.00;;;;;;;-2.28;100.00;141722.22;106385;1264;25442;-59
2024/01/04 10:15:28;;;;;;;34.30;17.00;;;;;;;-2.25;100.00;141728.16;106430;1271;25357;-58
2024/01/04 10:18:16;;;;;;;40.20;20.40;;;;;;;-2.19;100.00;141744.28;106488;1271;25698;-61
2024/01/04 10:21:04;;;;;;;27.70;17.20;;;;;;;-2.08;100.00;141770.83;106466;1282;25428;-65
2024/01/04 10:23:59;;;;;;;28.50;16.60;;;;;;;-1.94;100.00;141804.81;106403;1271;25371;-61
2024/01/04 10:26:53;;;;;;;33.70;18.40;;;;;;;-1.81;100.00;141836.58;106475;1270;25337;-63
2024/01/04 10:29:41;;;;;;;40.40;22.50;;;;;;;-1.67;100.00;141868.84;106339;1271;25959;-61
2024/01/04 10:32:28;;;;;;;37.80;22.50;;;;;;;-1.53;100.00;141903.86;106313;1271;25831;-60
2024/01/04 10:35:13;;;;;;;31.20;18.20;;;;;;;-1.42;100.00;141929.67;106347;1272;25962;-63
2024/01/04 10:38:00;;;;;;;30.10;17.00;;;;;;;-1.38;100.00;141940.86;106249;1264;25347;-64
2024/01/04 10:40:45;;;;;;;42.90;22.60;;;;;;;-1.50;100.00;141910.81;106202;1264;25358;-62
2024/01/04 10:43:33;;;;;;;45.00;25.50;;;;;;;-1.71;100.00;141860.92;106198;1271;25368;-61
2024/01/04 10:46:19;;;;;;;67.40;37.50;;;;;;;-1.86;100.00;141822.70;106224;1283;25345;-60
2024/01/04 10:49:05;;;;;;;82.80;42.70;;;;;;;-1.97;100.00;141796.16;106840;1271;25356;-58
2024/01/04 10:51:57;;;;;;;68.60;39.00;;;;;;;-2.07;100.00;141773.81;107019;1262;25341;-63
2024/01/04 10:54:43;;;;;;;;;;;;;;;-2.13;100.00;141757.92;107035;1263;25433;-59
2024/01/04 10:57:31;;;;;;;80.10;42.30;;;;;;;-2.21;100.00;141739.58;107068;1256;25404;-62
2024/01/04 11:00:18;;;;;;;75.00;38.30;;;;;;;-2.27;100.00;141723.45;107221;1256;25332;-60
2024/01/04 11:03:09;;;;;;;82.90;45.70;;;;;;;-2.27;100.00;141723.20;107215;1250;23957;-61
2024/01/04 11:06:02;;;;;;;76.40;39.90;;;;;;;-2.26;100.00;141725.44;107676;1260;25452;-56
2024/01/04 11:08:49;;;;;;;87.10;40.70;;;;;;;-2.22;100.00;141736.11;107556;1256;25417;-57
2024/01/04 11:11:36;;;;;;;67.90;36.10;;;;;;;-2.13;100.00;141758.42;107203;1263;23330;-58
2024/01/04 11:14:23;;;;;;;82.40;40.70;;;;;;;-2.02;100.00;141785.47;107101;1251;25369;-63
2024/01/04 11:17:27;;;;;;;101.20;50.50;;;;;;;-1.93;100.00;141806.03;107064;1263;25322;-63
2024/01/04 11:20:20;;;;;;;74.70;38.10;;;;;;;-1.88;100.00;141819.22;107204;1263;22576;-61
2024/01/04 11:23:27;;;;;;;82.00;41.60;;;;;;;-1.85;100.00;141825.91;107404;1257;25418;-59
2024/01/04 11:26:28;;;;;;;75.30;40.20;;;;;;;-1.86;100.00;141823.17;107325;1263;25500;-64
2024/01/04 11:29:19;;;;;;;107.00;48.40;;;;;;;-1.93;100.00;141806.06;107506;1263;25465;-61
2024/01/04 11:32:06;;;;;;;97.00;45.70;;;;;;;-1.83;100.00;141831.88;107603;1263;25645;-60
2024/01/04 11:34:52;;;;;;;99.10;47.70;;;;;;;-1.65;100.00;141875.31;107525;1256;25651;-62
2024/01/04 11:37:38;;;;;;;100.00;50.80;;;;;;;-1.48;100.00;141915.53;107462;1263;23795;-58
2024/01/04 11:40:29;;;;;;;96.10;49.10;;;;;;;-1.44;100.00;141924.22;107341;1253;23396;-62
2024/01/04 11:43:16;;;;;;;86.40;48.70;;;;;;;-1.56;100.00;141897.16;107592;1253;25421;-62
2024/01/04 11:46:05;;;;;;;88.40;44.80;;;;;;;-1.77;100.00;141846.27;107552;1261;22638;-63
2024/01/04 11:49:03;;;;;;;92.70;47.70;;;;;;;-2.03;100.00;141781.97;107429;1253;25958;-61
2024/01/04 11:51:50;;;;;;;89.00;44.40;;;;;;;-2.31;100.00;141714.50;107236;1262;22539;-61
2024/01/04 11:54:40;;;;;;;90.40;49.10;;;;;;;-2.57;100.00;141652.97;107221;1273;25349;-61
2024/01/04 11:57:27;;;;;;;88.80;50.10;;;;;;;-2.76;100.00;141605.88;107194;1269;25421;-62
2024/01/04 12:00:16;;;;;;;92.10;51.20;;;;;;;-2.91;100.00;141569.69;107268;1255;25334;-60
2024/01/04 12:03:14;;;;;;;86.10;49.10;;;;;;;-3.02;100.00;141543.66;107022;1254;25393;-61
2024/01/04 12:06:06;;;;;;;90.60;50.10;;;;;;;-3.19;100.00;141501.00;107130;1253;22523;-61
2024/01/04 12:09:01;;;;;;;100.50;51.00;;;;;;;-3.32;100.00;141471.52;107044;1256;25369;-61
2024/01/04 12:11:55;;;;;;;105.50;53.30;;;;;;;-3.42;100.00;141445.52;107028;1256;25393;-63
2024/01/04 12:14:40;;;;;;;101.50;54.10;;;;;;;-3.52;100.00;141422.45;107058;1254;25436;-59
2024/01/04 12:17:26;;;;;;;102.70;53.30;;;;;;;-3.57;100.00;141407.84;107021;1257;25341;-63
2024/01/04 12:20:12;;;;;;;109.60;56.60;;;;;;;-3.73;100.00;141370.41;106988;1256;25369;-63
2024/01/04 12:22:58;;;;;;;109.10;54.10;;;;;;;-3.89;100.00;141330.78;107019;1256;25369;-61